createdAt,value
2017-06-03T00:02:22.310Z,15.60
2017-06-03T00:04:56.958Z,15.60
2017-06-03T00:07:31.509Z,15.60
2017-06-03T00:10:06.193Z,15.70
2017-06-03T00:12:40.641Z,15.70
2017-06-03T00:15:15.216Z,15.70
2017-06-03T00:17:49.812Z,15.70
2017-06-03T00:20:25.162Z,15.60
2017-06-03T00:22:59.783Z,15.60
2017-06-03T00:25:34.426Z,15.60
2017-06-03T00:28:09.033Z,15.60
2017-06-03T00:30:43.685Z,15.50
2017-06-03T00:33:18.866Z,15.50
2017-06-03T00:35:53.442Z,15.50
2017-06-03T00:38:28.049Z,15.50
2017-06-03T00:41:02.657Z,15.40
2017-06-03T00:43:41.809Z,15.40
2017-06-03T00:46:25.296Z,15.40
2017-06-03T00:49:05.878Z,15.40
2017-06-03T00:51:46.721Z,15.40
2017-06-03T00:54:27.279Z,15.40
2017-06-03T00:57:08.889Z,15.40
2017-06-03T00:59:49.225Z,15.30
2017-06-03T01:02:30.116Z,15.40
2017-06-03T01:05:11.582Z,15.40
2017-06-03T01:07:54.307Z,15.40
2017-06-03T01:10:36.209Z,15.30
2017-06-03T01:13:18.811Z,15.20
2017-06-03T01:15:59.787Z,15.20
2017-06-03T01:18:40.518Z,15.20
2017-06-03T01:21:20.980Z,15.20
2017-06-03T01:24:00.960Z,15.10
2017-06-03T01:26:43.955Z,15.10
2017-06-03T01:29:24.764Z,15.10
2017-06-03T01:32:05.007Z,15.10
2017-06-03T01:34:45.778Z,15.00
2017-06-03T01:37:27.236Z,15.00
2017-06-03T01:40:07.248Z,15.00
2017-06-03T01:42:48.609Z,15.00
2017-06-03T01:45:27.078Z,15.00
2017-06-03T01:48:05.952Z,15.00
2017-06-03T01:50:45.644Z,15.00
2017-06-03T01:53:28.842Z,14.90
2017-06-03T01:56:08.687Z,15.00
2017-06-03T01:58:49.612Z,15.00
2017-06-03T02:01:30.530Z,15.00
2017-06-03T02:04:10.691Z,14.90
2017-06-03T02:06:46.362Z,14.90
2017-06-03T02:09:21.979Z,14.90
2017-06-03T02:11:57.269Z,14.90
2017-06-03T02:14:31.978Z,14.90
2017-06-03T02:17:06.670Z,14.90
2017-06-03T02:19:41.511Z,14.80
2017-06-03T02:22:16.099Z,14.80
2017-06-03T02:24:50.901Z,14.80
2017-06-03T02:27:25.335Z,14.80
2017-06-03T02:30:00.726Z,14.80
2017-06-03T02:32:35.167Z,14.80
2017-06-03T02:35:09.756Z,14.70
2017-06-03T02:37:44.353Z,14.70
2017-06-03T02:40:19.010Z,14.70
2017-06-03T02:42:53.567Z,14.70
2017-06-03T02:45:28.232Z,14.70
2017-06-03T02:48:02.840Z,14.70
2017-06-03T02:50:37.438Z,14.80
2017-06-03T02:53:12.053Z,14.80
2017-06-03T02:55:46.784Z,14.80
2017-06-03T02:58:21.236Z,14.80
2017-06-03T03:00:55.900Z,14.80
2017-06-03T03:03:30.387Z,14.90
2017-06-03T03:06:05.744Z,14.80
2017-06-03T03:08:40.326Z,14.80
2017-06-03T03:11:14.890Z,14.90
2017-06-03T03:13:49.491Z,14.90
2017-06-03T03:16:24.881Z,14.90
2017-06-03T03:18:59.477Z,14.90
2017-06-03T03:21:35.911Z,14.90
2017-06-03T03:24:12.195Z,14.90
2017-06-03T03:26:47.618Z,14.80
2017-06-03T03:29:22.946Z,14.80
2017-06-03T03:31:58.479Z,14.80
2017-06-03T03:34:34.662Z,14.80
2017-06-03T03:37:10.407Z,14.70
2017-06-03T03:39:45.764Z,14.70
2017-06-03T03:42:22.619Z,14.70
2017-06-03T03:44:58.170Z,14.70
2017-06-03T03:47:33.922Z,14.70
2017-06-03T03:50:10.215Z,14.70
2017-06-03T03:52:45.957Z,14.70
2017-06-03T03:55:21.799Z,14.80
2017-06-03T03:57:57.514Z,14.80
2017-06-03T04:00:33.068Z,14.90
2017-06-03T04:03:08.894Z,14.90
2017-06-03T04:05:44.470Z,14.90
2017-06-03T04:08:20.065Z,15.00
2017-06-03T04:10:55.545Z,15.00
2017-06-03T04:13:31.550Z,15.00
2017-06-03T04:16:07.053Z,15.00
2017-06-03T04:18:42.707Z,15.00
2017-06-03T04:21:18.265Z,14.90
2017-06-03T04:23:53.734Z,15.00
2017-06-03T04:26:29.122Z,15.00
2017-06-03T04:29:05.581Z,15.10
2017-06-03T04:31:40.922Z,15.10
2017-06-03T04:34:16.797Z,15.10
2017-06-03T04:36:52.212Z,15.10
2017-06-03T04:39:27.854Z,15.10
2017-06-03T04:42:03.317Z,15.10
2017-06-03T04:44:40.510Z,15.20
2017-06-03T04:47:15.904Z,15.20
2017-06-03T04:49:52.045Z,15.20
2017-06-03T04:52:28.205Z,15.40
2017-06-03T04:55:03.858Z,15.40
2017-06-03T04:57:40.387Z,15.70
2017-06-03T05:00:16.418Z,15.70
2017-06-03T05:02:51.058Z,15.80
2017-06-03T05:05:25.907Z,15.90
2017-06-03T05:08:00.610Z,16.00
2017-06-03T05:10:35.274Z,16.00
2017-06-03T05:13:09.931Z,15.90
2017-06-03T05:15:45.518Z,15.80
2017-06-03T05:18:21.186Z,15.80
2017-06-03T05:20:56.937Z,15.70
2017-06-03T05:23:32.255Z,15.80
2017-06-03T05:26:07.835Z,15.90
2017-06-03T05:28:43.235Z,16.00
2017-06-03T05:31:19.593Z,16.20
2017-06-03T05:33:55.124Z,16.20
2017-06-03T05:36:31.511Z,16.30
2017-06-03T05:39:07.169Z,16.30
2017-06-03T05:41:43.851Z,16.10
2017-06-03T05:44:20.106Z,16.00
2017-06-03T05:46:56.976Z,15.90
2017-06-03T05:49:32.543Z,15.90
2017-06-03T05:52:08.044Z,15.90
2017-06-03T05:54:43.678Z,15.90
2017-06-03T05:57:19.221Z,15.80
2017-06-03T05:59:54.795Z,15.90
2017-06-03T06:02:30.525Z,15.80
2017-06-03T06:05:06.548Z,15.90
2017-06-03T06:07:42.161Z,15.90
2017-06-03T06:10:17.555Z,15.90
2017-06-03T06:12:52.285Z,15.80
2017-06-03T06:15:26.701Z,15.80
2017-06-03T06:18:01.386Z,15.90
2017-06-03T06:20:36.004Z,15.90
2017-06-03T06:23:10.535Z,15.90
2017-06-03T06:25:44.992Z,15.90
2017-06-03T06:28:19.565Z,15.90
2017-06-03T06:30:54.046Z,15.90
2017-06-03T06:33:28.725Z,15.90
2017-06-03T06:36:03.169Z,15.90
2017-06-03T06:38:38.647Z,15.80
2017-06-03T06:41:13.238Z,15.80
2017-06-03T06:43:48.669Z,15.90
2017-06-03T06:46:27.642Z,15.80
2017-06-03T06:49:08.683Z,15.90
2017-06-03T06:51:49.069Z,15.90
2017-06-03T06:54:29.303Z,15.90
2017-06-03T06:57:09.851Z,16.00
2017-06-03T06:59:50.307Z,16.00
2017-06-03T07:02:29.396Z,16.00
2017-06-03T07:05:04.935Z,16.00
2017-06-03T07:07:39.965Z,16.10
2017-06-03T07:10:14.727Z,16.00
2017-06-03T07:12:49.207Z,16.00
2017-06-03T07:15:23.758Z,15.90
2017-06-03T07:17:58.266Z,15.90
2017-06-03T07:20:33.536Z,16.00
2017-06-03T07:23:08.842Z,16.10
2017-06-03T07:25:43.452Z,16.10
2017-06-03T07:28:17.852Z,16.00
2017-06-03T07:30:52.734Z,16.10
2017-06-03T07:33:27.282Z,16.00
2017-06-03T07:36:01.988Z,16.10
2017-06-03T07:38:36.519Z,16.00
2017-06-03T07:41:11.263Z,15.90
2017-06-03T07:43:45.745Z,16.00
2017-06-03T07:46:20.557Z,15.80
2017-06-03T07:48:54.983Z,15.80
2017-06-03T07:51:29.669Z,15.80
2017-06-03T07:54:04.200Z,15.70
2017-06-03T07:56:38.672Z,15.80
2017-06-03T07:59:13.125Z,15.70
2017-06-03T08:01:47.746Z,15.60
2017-06-03T08:04:22.441Z,15.60
2017-06-03T08:06:57.963Z,15.50
2017-06-03T08:09:32.561Z,15.50
2017-06-03T08:12:07.960Z,15.50
2017-06-03T08:14:42.545Z,15.50
2017-06-03T08:17:17.254Z,15.60
2017-06-03T08:19:52.502Z,15.60
2017-06-03T08:22:27.133Z,15.60
2017-06-03T08:25:01.733Z,15.60
2017-06-03T08:27:36.341Z,15.70
2017-06-03T08:30:10.943Z,15.70
2017-06-03T08:32:45.422Z,15.80
2017-06-03T08:35:20.005Z,15.80
2017-06-03T08:37:55.469Z,15.90
2017-06-03T08:40:30.921Z,15.80
2017-06-03T08:43:05.593Z,15.60
2017-06-03T08:45:40.766Z,15.60
2017-06-03T08:48:20.616Z,15.60
2017-06-03T08:51:00.794Z,15.60
2017-06-03T08:53:41.597Z,15.60
2017-06-03T08:56:22.183Z,15.60
2017-06-03T08:59:02.977Z,15.50
2017-06-03T09:01:42.672Z,15.50
2017-06-03T09:04:24.803Z,15.50
2017-06-03T09:07:05.246Z,15.50
2017-06-03T09:09:44.962Z,15.60
2017-06-03T09:12:24.573Z,15.70
2017-06-03T09:15:04.148Z,15.70
2017-06-03T09:17:45.060Z,15.80
2017-06-03T09:20:25.473Z,15.80
2017-06-03T09:23:05.772Z,15.80
2017-06-03T09:25:44.526Z,15.80
2017-06-03T09:28:25.345Z,15.90
2017-06-03T09:31:10.368Z,15.90
2017-06-03T09:33:56.419Z,16.10
2017-06-03T09:36:40.445Z,16.10
2017-06-03T09:39:26.045Z,16.10
2017-06-03T09:42:10.200Z,16.10
2017-06-03T09:44:55.890Z,16.00
2017-06-03T09:47:39.358Z,16.00
2017-06-03T09:50:23.251Z,16.00
2017-06-03T09:53:04.123Z,16.10
2017-06-03T09:55:40.642Z,16.20
2017-06-03T09:58:15.129Z,16.20
2017-06-03T10:00:49.759Z,16.20
2017-06-03T10:03:24.257Z,16.20
2017-06-03T10:05:59.242Z,16.20
2017-06-03T10:08:33.709Z,16.30
2017-06-03T10:11:08.425Z,16.40
2017-06-03T10:13:42.878Z,16.60
2017-06-03T10:16:18.291Z,16.50
2017-06-03T10:18:52.874Z,16.50
2017-06-03T10:21:27.693Z,16.60
2017-06-03T10:24:02.268Z,16.60
2017-06-03T10:26:36.951Z,16.50
2017-06-03T10:29:11.559Z,16.50
2017-06-03T10:31:46.219Z,16.50
2017-06-03T10:34:20.713Z,16.50
2017-06-03T10:36:55.366Z,16.60
2017-06-03T10:39:29.992Z,16.60
2017-06-03T10:42:04.754Z,16.70
2017-06-03T10:44:39.369Z,16.80
2017-06-03T10:47:13.974Z,16.70
2017-06-03T10:49:48.412Z,16.70
2017-06-03T10:52:23.056Z,16.60
2017-06-03T10:54:57.551Z,16.70
2017-06-03T10:57:32.055Z,16.70
2017-06-03T11:00:06.681Z,16.70
2017-06-03T11:02:41.192Z,16.70
2017-06-03T11:05:15.650Z,16.60
2017-06-03T11:07:50.269Z,16.70
2017-06-03T11:10:24.747Z,16.70
2017-06-03T11:12:59.413Z,16.70
2017-06-03T11:15:33.847Z,16.60
2017-06-03T11:18:08.445Z,16.60
2017-06-03T11:20:42.891Z,16.60
2017-06-03T11:23:18.338Z,16.50
2017-06-03T11:25:52.835Z,16.50
2017-06-03T11:28:27.350Z,16.50
2017-06-03T11:31:01.803Z,16.50
2017-06-03T11:33:36.661Z,16.50
2017-06-03T11:36:11.358Z,16.50
2017-06-03T11:38:45.951Z,16.50
2017-06-03T11:41:20.572Z,16.40
2017-06-03T11:43:55.319Z,16.50
2017-06-03T11:46:29.806Z,16.40
2017-06-03T11:49:04.606Z,16.50
2017-06-03T11:51:39.048Z,16.50
2017-06-03T11:54:13.690Z,16.50
2017-06-03T11:56:48.354Z,16.50
2017-06-03T11:59:23.964Z,16.70
2017-06-03T12:01:58.572Z,16.70
2017-06-03T12:04:33.214Z,16.70
2017-06-03T12:07:07.785Z,16.70
2017-06-03T12:09:42.286Z,16.70
2017-06-03T12:12:16.933Z,16.80
2017-06-03T12:14:51.870Z,16.70
2017-06-03T12:17:26.462Z,16.80
2017-06-03T12:20:01.135Z,16.70
2017-06-03T12:22:35.729Z,16.80
2017-06-03T12:25:10.932Z,16.80
2017-06-03T12:27:45.509Z,16.80
2017-06-03T12:30:20.077Z,16.90
2017-06-03T12:32:54.697Z,17.10
2017-06-03T12:35:29.218Z,17.20
2017-06-03T12:38:03.671Z,17.30
2017-06-03T12:40:38.449Z,17.40
2017-06-03T12:43:12.898Z,17.60
2017-06-03T12:45:47.773Z,17.70
2017-06-03T12:48:22.171Z,18.00
2017-06-03T12:50:56.890Z,18.10
2017-06-03T12:53:31.621Z,18.50
2017-06-03T12:56:06.199Z,18.80
2017-06-03T12:58:40.805Z,19.10
2017-06-03T13:01:15.450Z,19.20
2017-06-03T13:03:49.946Z,19.10
2017-06-03T13:06:24.577Z,19.00
2017-06-03T13:08:59.215Z,19.00
2017-06-03T13:11:33.724Z,19.20
2017-06-03T13:14:08.219Z,19.80
2017-06-03T13:16:42.964Z,20.00
2017-06-03T13:19:17.444Z,20.30
2017-06-03T13:21:52.203Z,20.40
2017-06-03T13:24:26.741Z,20.30
2017-06-03T13:27:01.456Z,20.70
2017-06-03T13:29:37.674Z,21.50
2017-06-03T13:32:12.303Z,21.50
2017-06-03T13:34:46.831Z,21.50
2017-06-03T13:37:21.962Z,21.90
2017-06-03T13:39:56.493Z,21.60
2017-06-03T13:42:31.299Z,21.00
2017-06-03T13:45:06.031Z,20.60
2017-06-03T13:47:40.894Z,20.20
2017-06-03T13:50:15.284Z,20.20
2017-06-03T13:52:50.158Z,20.10
2017-06-03T13:55:24.720Z,19.80
2017-06-03T13:57:59.319Z,19.90
2017-06-03T14:00:33.875Z,19.80
2017-06-03T14:03:09.465Z,20.00
2017-06-03T14:05:43.953Z,19.90
2017-06-03T14:08:18.639Z,20.00
2017-06-03T14:10:53.092Z,19.90
2017-06-03T14:13:28.702Z,19.50
2017-06-03T14:16:03.305Z,19.50
2017-06-03T14:18:37.896Z,19.50
2017-06-03T14:21:12.438Z,19.40
2017-06-03T14:23:47.122Z,19.30
2017-06-03T14:26:22.501Z,19.10
2017-06-03T14:28:57.192Z,19.00
2017-06-03T14:31:31.924Z,19.00
2017-06-03T14:34:06.576Z,19.00
2017-06-03T14:36:41.115Z,19.00
2017-06-03T14:39:15.805Z,19.00
2017-06-03T14:41:51.777Z,19.10
2017-06-03T14:44:26.557Z,19.00
2017-06-03T14:47:01.039Z,19.00
2017-06-03T14:49:35.582Z,19.10
2017-06-03T14:52:10.091Z,19.10
2017-06-03T14:54:44.659Z,19.10
2017-06-03T14:57:19.343Z,19.10
2017-06-03T14:59:54.148Z,19.20
2017-06-03T15:02:28.778Z,19.20
2017-06-03T15:05:03.282Z,19.20
2017-06-03T15:07:37.800Z,19.20
2017-06-03T15:10:12.274Z,19.10
2017-06-03T15:12:46.901Z,19.10
2017-06-03T15:15:22.502Z,18.90
2017-06-03T15:17:57.091Z,18.90
2017-06-03T15:20:31.871Z,18.90
2017-06-03T15:23:06.452Z,18.90
2017-06-03T15:25:41.858Z,18.80
2017-06-03T15:28:21.846Z,18.80
2017-06-03T15:31:04.316Z,18.80
2017-06-03T15:33:44.986Z,18.60
2017-06-03T15:36:26.807Z,18.60
2017-06-03T15:39:09.744Z,18.60
2017-06-03T15:41:50.549Z,18.70
2017-06-03T15:47:32.690Z,18.70
2017-06-03T15:50:07.070Z,18.70
2017-06-03T15:52:41.829Z,18.70
2017-06-03T15:55:16.321Z,18.70
2017-06-03T15:57:50.786Z,18.80
2017-06-03T16:00:25.160Z,18.80
2017-06-03T16:02:59.696Z,18.80
2017-06-03T16:05:34.214Z,18.90
2017-06-03T16:08:08.672Z,18.80
2017-06-03T16:10:43.197Z,18.90
2017-06-03T16:13:18.477Z,18.90
2017-06-03T16:15:53.137Z,18.90
2017-06-03T16:18:27.501Z,18.90
2017-06-03T16:21:02.091Z,18.80
2017-06-03T16:23:37.393Z,18.80
2017-06-03T16:26:11.943Z,18.80
2017-06-03T16:28:46.436Z,18.90
2017-06-03T16:31:20.909Z,18.90
2017-06-03T16:33:55.273Z,18.90
2017-06-03T16:36:30.659Z,18.90
2017-06-03T16:39:05.183Z,18.90
2017-06-03T16:41:39.585Z,18.80
2017-06-03T16:44:13.967Z,18.80
2017-06-03T16:46:48.336Z,18.90
2017-06-03T16:49:22.885Z,18.80
2017-06-03T16:51:57.402Z,18.90
2017-06-03T16:54:31.869Z,18.80
2017-06-03T16:57:06.345Z,18.70
2017-06-03T16:59:40.825Z,18.80
2017-06-03T17:02:15.337Z,18.80
2017-06-03T17:04:50.650Z,18.80
2017-06-03T17:07:25.311Z,18.80
2017-06-03T17:10:00.612Z,18.80
2017-06-03T17:12:36.002Z,18.70
2017-06-03T17:15:10.505Z,18.70
2017-06-03T17:17:45.030Z,18.80
2017-06-03T17:20:20.348Z,18.80
2017-06-03T17:22:55.723Z,18.80
2017-06-03T17:25:30.232Z,18.80
2017-06-03T17:28:04.977Z,18.80
2017-06-03T17:30:39.474Z,19.00
2017-06-03T17:33:14.617Z,18.90
2017-06-03T17:35:49.137Z,18.90
2017-06-03T17:38:23.676Z,18.90
2017-06-03T17:40:58.181Z,18.90
2017-06-03T17:43:33.763Z,18.80
2017-06-03T17:46:08.696Z,18.80
2017-06-03T17:48:43.220Z,18.80
2017-06-03T17:51:17.737Z,18.80
2017-06-03T17:53:52.353Z,18.80
2017-06-03T17:56:26.753Z,18.70
2017-06-03T17:59:01.161Z,18.70
2017-06-03T18:01:35.725Z,18.70
2017-06-03T18:04:10.267Z,18.70
2017-06-03T18:06:44.653Z,18.60
2017-06-03T18:09:19.145Z,18.60
2017-06-03T18:11:53.697Z,18.60
2017-06-03T18:14:28.220Z,18.60
2017-06-03T18:17:02.634Z,18.60
2017-06-03T18:19:37.160Z,18.60
2017-06-03T18:22:17.421Z,18.60
2017-06-03T18:24:51.780Z,18.50
2017-06-03T18:27:32.276Z,18.50
2017-06-03T18:30:06.688Z,18.40
2017-06-03T18:32:41.327Z,18.40
2017-06-03T18:35:15.688Z,18.30
2017-06-03T18:37:50.180Z,18.30
2017-06-03T18:40:24.635Z,18.30
2017-06-03T18:42:59.014Z,18.30
2017-06-03T18:45:33.497Z,18.30
2017-06-03T18:48:07.830Z,18.20
2017-06-03T18:50:42.236Z,18.10
2017-06-03T18:53:16.713Z,18.10
2017-06-03T18:55:51.089Z,18.10
2017-06-03T18:58:25.461Z,18.00
2017-06-03T19:01:00.742Z,17.90
2017-06-03T19:03:35.366Z,17.90
2017-06-03T19:06:10.781Z,17.90
2017-06-03T19:08:45.449Z,17.90
2017-06-03T19:11:20.737Z,17.80
2017-06-03T19:13:55.219Z,17.80
2017-06-03T19:16:29.707Z,17.70
2017-06-03T19:19:04.865Z,17.70
2017-06-03T19:21:39.370Z,17.60
2017-06-03T19:24:13.823Z,17.70
2017-06-03T19:26:48.201Z,17.60
2017-06-03T19:29:22.650Z,17.60
2017-06-03T19:31:57.857Z,17.50
2017-06-03T19:34:32.495Z,17.50
2017-06-03T19:37:07.004Z,17.60
2017-06-03T19:39:42.292Z,17.50
2017-06-03T19:42:17.466Z,17.50
2017-06-03T19:44:51.875Z,17.50
2017-06-03T19:47:26.337Z,17.50
2017-06-03T19:50:00.850Z,17.40
2017-06-03T19:52:35.419Z,17.40
2017-06-03T19:55:09.889Z,17.30
2017-06-03T19:57:44.551Z,17.30
2017-06-03T20:00:19.013Z,17.30
2017-06-03T20:02:53.452Z,17.30
2017-06-03T20:05:27.985Z,17.30
2017-06-03T20:08:02.412Z,17.30
2017-06-03T20:10:36.785Z,17.30
2017-06-03T20:13:11.236Z,17.30
2017-06-03T20:15:45.745Z,17.30
2017-06-03T20:18:20.337Z,17.20
2017-06-03T20:20:54.731Z,17.20
2017-06-03T20:23:29.121Z,17.20
2017-06-03T20:26:03.641Z,17.20
2017-06-03T20:28:38.239Z,17.20
2017-06-03T20:31:13.504Z,17.10
2017-06-03T20:33:47.948Z,17.10
2017-06-03T20:36:22.433Z,17.10
2017-06-03T20:38:58.061Z,17.10
2017-06-03T20:41:32.597Z,17.10
2017-06-03T20:44:08.293Z,17.00
2017-06-03T20:46:42.749Z,17.00
2017-06-03T20:49:17.186Z,17.10
2017-06-03T20:51:51.589Z,17.00
2017-06-03T20:54:26.004Z,17.00
2017-06-03T20:57:00.420Z,17.00
2017-06-03T20:59:34.917Z,17.00
2017-06-03T21:02:09.280Z,17.00
2017-06-03T21:04:43.832Z,17.00
2017-06-03T21:07:19.125Z,17.00
2017-06-03T21:09:53.514Z,16.90
2017-06-03T21:12:27.969Z,16.90
2017-06-03T21:15:02.416Z,16.90
2017-06-03T21:17:36.946Z,16.90
2017-06-03T21:20:11.581Z,16.90
2017-06-03T21:22:45.945Z,16.90
2017-06-03T21:25:20.544Z,16.90
2017-06-03T21:27:55.014Z,16.80
2017-06-03T21:30:29.586Z,16.80
2017-06-03T21:33:04.873Z,16.80
2017-06-03T21:35:39.464Z,16.80
2017-06-03T21:38:14.056Z,16.80
2017-06-03T21:40:48.717Z,16.80
2017-06-03T21:43:23.157Z,16.80
2017-06-03T21:45:57.614Z,16.80
2017-06-03T21:48:31.980Z,16.80
2017-06-03T21:51:06.456Z,16.80
2017-06-03T21:53:41.060Z,16.80
2017-06-03T21:56:15.621Z,16.70
2017-06-03T21:58:50.997Z,16.70
2017-06-03T22:01:26.296Z,16.70
2017-06-03T22:04:00.784Z,16.70
2017-06-03T22:06:35.252Z,16.70
2017-06-03T22:09:09.837Z,16.70
2017-06-03T22:11:44.360Z,16.70
2017-06-03T22:14:18.885Z,16.70
2017-06-03T22:16:54.025Z,16.50
2017-06-03T22:19:28.521Z,16.50
2017-06-03T22:22:02.935Z,16.50
2017-06-03T22:24:37.468Z,16.40
2017-06-03T22:27:11.918Z,16.50
2017-06-03T22:29:47.197Z,16.30
2017-06-03T22:32:22.477Z,16.30
2017-06-03T22:34:57.088Z,16.30
2017-06-03T22:37:31.509Z,16.30
2017-06-03T22:40:06.025Z,16.20
2017-06-03T22:42:40.459Z,16.20
2017-06-03T22:45:14.885Z,16.20
2017-06-03T22:47:49.341Z,16.20
2017-06-03T22:50:23.696Z,16.20
2017-06-03T22:52:58.845Z,16.00
2017-06-03T22:55:33.194Z,16.00
2017-06-03T22:58:07.699Z,16.00
2017-06-03T23:00:42.133Z,16.10
2017-06-03T23:03:17.321Z,15.90
2017-06-03T23:05:51.970Z,15.90
2017-06-03T23:08:26.385Z,16.00
2017-06-03T23:11:00.761Z,16.00
2017-06-03T23:13:35.326Z,15.80
2017-06-03T23:16:09.765Z,15.80
2017-06-03T23:18:44.259Z,15.80
2017-06-03T23:21:18.901Z,15.90
2017-06-03T23:23:53.408Z,15.90
2017-06-03T23:26:27.790Z,15.80
2017-06-03T23:29:02.361Z,15.80
2017-06-03T23:31:36.794Z,15.70
2017-06-03T23:34:11.157Z,15.70
2017-06-03T23:36:45.725Z,15.60
2017-06-03T23:39:20.148Z,15.60
2017-06-03T23:41:54.585Z,15.60
2017-06-03T23:44:29.081Z,15.60
2017-06-03T23:47:03.555Z,15.60
2017-06-03T23:49:38.118Z,15.60
2017-06-03T23:52:13.363Z,15.60
2017-06-03T23:54:47.750Z,15.50
2017-06-03T23:57:22.210Z,15.60
2017-06-03T23:59:56.681Z,15.60
